Philadelphia, Pennsylvania
Traffic Map
Current Weather Conditions
Philadelphia, Pennsylvania
Few Clouds
Few Clouds

Feels Like: 1°
Wind Chill: Ceiling: Unl
Heat Index: Visibility: 10mi
Dew Point: -3° Wind: 0mph
Humidity: 78% Direction: ° ()
Pressure: 30.09in Gusts: 0mph
Raw Report DataKPHL 210554Z 00000KT 10SM FEW250 01/M03 A3009 RMK AO2 SLP190 T00061028 10094 20006 51007 $
Traffic Incident Summary
Active as of:
Severity:
Category:
InformationThere was an issue retrieving the traffic information for this location. Please try a different location or try again shortly.
Advertisements